Time;durP1;ratioP1;P1;durP2;ratioP2;P2;SDS_P1;SDS_P2;PMS_P1;PMS_P2;Temp;Humidity;BMP_temperature;BMP_pressure;BME280_temperature;BME280_humidity;BME280_pressure;Samples;Min_cycle;Max_cycle;Signal;HPM_P1;HPM_P2
2022/06/02 00:01:40;;;;;;;2.07;1.80;;;;;;;14.67;100.00;96435.53;4886844;28;101988;-70
2022/06/02 00:04:19;;;;;;;2.13;1.97;;;;;;;14.63;100.00;96429.16;4909900;28;103544;-70
2022/06/02 00:06:52;;;;;;;2.30;2.10;;;;;;;14.65;100.00;96423.50;4911210;28;103237;-70
2022/06/02 00:09:43;;;;;;;2.13;1.97;;;;;;;14.72;100.00;96421.34;4894968;28;101919;-70
2022/06/02 00:12:15;;;;;;;2.17;1.93;;;;;;;14.72;100.00;96424.03;4913341;28;105215;-70
2022/06/02 00:15:01;;;;;;;2.17;2.07;;;;;;;14.70;100.00;96413.59;4912167;28;101790;-70
2022/06/02 00:17:41;;;;;;;2.33;2.20;;;;;;;14.67;100.00;96419.47;4910400;28;105422;-70
2022/06/02 00:20:15;;;;;;;2.90;2.20;;;;;;;14.65;100.00;96413.59;4909913;28;105604;-71
2022/06/02 00:22:55;;;;;;;3.13;2.50;;;;;;;14.61;100.00;96417.91;4910861;28;102058;-71
2022/06/02 00:25:31;;;;;;;2.67;2.30;;;;;;;14.50;100.00;96423.59;4910716;28;105440;-71
2022/06/02 00:28:24;;;;;;;2.40;2.20;;;;;;;14.44;100.00;96428.16;4909685;28;105535;-71
2022/06/02 00:30:59;;;;;;;2.53;2.33;;;;;;;14.53;100.00;96415.00;4910554;28;101889;-71
2022/06/02 00:33:33;;;;;;;2.83;2.50;;;;;;;14.53;100.00;96420.34;4910726;28;105279;-71
2022/06/02 00:36:05;;;;;;;2.83;2.33;;;;;;;14.54;100.00;96427.31;4913142;28;106069;-71
2022/06/02 00:38:36;;;;;;;2.60;2.50;;;;;;;14.50;100.00;96427.06;4910325;28;105986;-71
2022/06/02 00:41:16;;;;;;;2.33;2.23;;;;;;;14.49;100.00;96430.81;4909838;28;105446;-71
2022/06/02 00:44:09;;;;;;;2.60;2.40;;;;;;;14.43;100.00;96428.41;4910107;28;102081;-71
2022/06/02 00:46:51;;;;;;;2.83;2.17;;;;;;;14.43;100.00;96431.09;4910286;28;104976;-71
2022/06/02 00:49:26;;;;;;;2.50;2.30;;;;;;;14.38;100.00;96437.28;4909785;28;105451;-71
2022/06/02 00:52:00;;;;;;;4.50;2.60;;;;;;;14.38;100.00;96452.53;4910271;28;102093;-71
2022/06/02 00:57:35;;;;;;;3.50;2.60;;;;;;;14.31;100.00;96460.03;4909814;28;104362;-71
2022/06/02 01:00:12;;;;;;;3.00;2.63;;;;;;;14.30;100.00;96456.56;4915137;28;101787;-71
2022/06/02 01:02:49;;;;;;;2.77;2.57;;;;;;;14.26;100.00;96462.72;4909541;28;105457;-71
2022/06/02 01:05:37;;;;;;;3.00;2.80;;;;;;;14.25;100.00;96461.94;4911047;28;101954;-71
2022/06/02 01:08:16;;;;;;;2.87;2.67;;;;;;;14.27;100.00;96464.31;4894021;28;106649;-71
2022/06/02 01:11:03;;;;;;;3.50;2.47;;;;;;;14.33;100.00;96468.59;4909431;28;104414;-70
2022/06/02 01:13:53;;;;;;;3.17;2.90;;;;;;;14.34;100.00;96464.84;4910149;28;101934;-71
2022/06/02 01:16:28;;;;;;;3.20;2.90;;;;;;;14.36;100.00;96460.00;4912691;28;104984;-70
2022/06/02 01:19:17;;;;;;;3.27;2.97;;;;;;;14.36;100.00;96481.41;4912648;28;105070;-70
2022/06/02 01:22:12;;;;;;;3.00;2.80;;;;;;;14.36;100.00;96484.09;4912689;28;101967;-70
2022/06/02 01:25:08;;;;;;;2.97;2.77;;;;;;;14.32;100.00;96485.69;4916057;28;105134;-70
2022/06/02 01:28:04;;;;;;;3.67;2.90;;;;;;;14.29;100.00;96480.91;4912837;28;101905;-70
2022/06/02 01:30:51;;;;;;;2.60;2.30;;;;;;;14.23;100.00;96487.34;4913195;28;105081;-70
2022/06/02 01:33:30;;;;;;;3.07;2.83;;;;;;;14.25;100.00;96487.88;4913606;28;102928;-71
2022/06/02 01:36:06;;;;;;;3.63;3.33;;;;;;;14.26;100.00;96484.09;4913109;28;101899;-71
2022/06/02 01:38:39;;;;;;;3.03;2.80;;;;;;;14.22;100.00;96475.03;4912776;28;105568;-70
2022/06/02 01:41:16;;;;;;;3.27;2.97;;;;;;;14.27;100.00;96480.34;4912435;28;105787;-70
2022/06/02 01:43:54;;;;;;;3.40;3.00;;;;;;;14.25;100.00;96515.44;4912553;28;101920;-70
2022/06/02 01:46:44;;;;;;;3.43;3.13;;;;;;;14.24;100.00;96523.72;4912891;28;105417;-70
2022/06/02 01:49:27;;;;;;;3.40;3.20;;;;;;;14.22;100.00;96507.16;4915391;28;104376;-70
2022/06/02 01:52:05;;;;;;;3.70;3.40;;;;;;;14.19;100.00;96499.63;4912833;28;104931;-71
2022/06/02 01:54:49;;;;;;;3.70;3.40;;;;;;;14.16;100.00;96508.16;4912064;28;105116;-70
2022/06/02 01:57:31;;;;;;;3.40;3.10;;;;;;;14.13;100.00;96517.56;4912540;28;102163;-70
2022/06/02 02:00:06;;;;;;;3.90;3.50;;;;;;;14.07;100.00;96512.47;4912921;28;104873;-70
2022/06/02 02:02:54;;;;;;;4.03;3.63;;;;;;;14.09;100.00;96510.31;4910325;28;102405;-71
2022/06/02 02:05:36;;;;;;;4.40;3.97;;;;;;;14.06;100.00;96495.63;4912326;28;102072;-71
2022/06/02 02:08:10;;;;;;;3.83;3.60;;;;;;;14.00;100.00;96491.34;4912671;28;104787;-70
2022/06/02 02:10:49;;;;;;;5.07;4.07;;;;;;;13.94;100.00;96486.25;4913327;28;103500;-71
2022/06/02 02:13:26;;;;;;;4.20;3.83;;;;;;;13.96;100.00;96494.84;4915728;28;101761;-70
2022/06/02 02:16:02;;;;;;;3.73;3.43;;;;;;;13.96;100.00;96484.13;4896715;28;104479;-71
2022/06/02 02:18:46;;;;;;;4.30;3.90;;;;;;;13.92;100.00;96489.22;4912293;28;101959;-71
2022/06/02 02:21:30;;;;;;;3.97;3.67;;;;;;;13.93;100.00;96479.31;4896272;28;104922;-70
2022/06/02 02:24:08;;;;;;;3.80;3.50;;;;;;;13.88;100.00;96473.97;4911613;28;105532;-71
2022/06/02 02:26:41;;;;;;;5.30;3.30;;;;;;;13.86;100.00;96476.13;4912980;28;101797;-70
2022/06/02 02:29:24;;;;;;;4.03;3.70;;;;;;;13.87;100.00;96464.34;4913796;28;102872;-70
2022/06/02 02:32:00;;;;;;;4.17;3.73;;;;;;;13.88;100.00;96466.75;4913011;28;102860;-70
2022/06/02 02:34:43;;;;;;;3.73;3.50;;;;;;;13.87;100.00;96465.16;4915561;28;101968;-71
2022/06/02 02:37:14;;;;;;;3.90;3.53;;;;;;;13.94;100.00;96464.88;4911411;28;105826;-71
2022/06/02 02:39:50;;;;;;;3.30;3.10;;;;;;;13.93;100.00;96465.94;4912177;28;101979;-71
2022/06/02 02:42:25;;;;;;;3.43;3.23;;;;;;;13.98;100.00;96455.25;4911739;28;105450;-71
2022/06/02 02:45:15;;;;;;;3.37;3.17;;;;;;;13.98;100.00;96465.94;4911363;28;105515;-71
2022/06/02 02:47:53;;;;;;;3.40;3.20;;;;;;;13.98;100.00;96466.75;4912061;28;102017;-71
2022/06/02 02:50:29;;;;;;;3.83;3.53;;;;;;;13.95;100.00;96472.63;4911762;28;106289;-71
2022/06/02 02:53:04;;;;;;;3.23;3.03;;;;;;;13.99;100.00;96467.53;4912738;28;103322;-71
2022/06/02 02:55:35;;;;;;;3.83;3.53;;;;;;;14.06;100.00;96473.44;4911733;28;101918;-71
2022/06/02 02:58:16;;;;;;;3.73;3.43;;;;;;;14.10;100.00;96469.13;4914415;28;104031;-71
2022/06/02 03:00:50;;;;;;;4.30;3.40;;;;;;;14.11;100.00;96457.38;4911540;28;101945;-71
2022/06/02 03:03:22;;;;;;;3.90;3.43;;;;;;;14.07;100.00;96464.34;4911715;28;104945;-71
2022/06/02 03:06:08;;;;;;;3.80;3.40;;;;;;;14.06;100.00;96468.09;4910405;28;105176;-71
2022/06/02 03:08:45;;;;;;;3.70;3.40;;;;;;;14.07;100.00;96475.03;4913201;28;101792;-71
2022/06/02 03:11:24;;;;;;;4.13;3.43;;;;;;;14.06;100.00;96470.75;4911306;28;103768;-71
2022/06/02 03:14:01;;;;;;;4.00;3.70;;;;;;;14.10;100.00;96469.13;4910853;28;105496;-71
2022/06/02 03:16:30;;;;;;;4.20;3.57;;;;;;;14.09;100.00;96478.22;4911340;28;101899;-71
2022/06/02 03:19:07;;;;;;;3.80;3.50;;;;;;;14.13;100.00;96490.81;4911261;28;105351;-71
2022/06/02 03:21:41;;;;;;;4.37;4.03;;;;;;;14.16;100.00;96478.75;4914263;28;105565;-71
2022/06/02 03:24:40;;;;;;;3.77;3.57;;;;;;;14.17;100.00;96480.38;4911519;28;104624;-71
2022/06/02 03:27:19;;;;;;;3.70;3.40;;;;;;;14.19;100.00;96473.72;4910788;28;105641;-71
2022/06/02 03:29:58;;;;;;;3.53;3.30;;;;;;;14.23;100.00;96474.75;4912883;28;101767;-71
2022/06/02 03:32:37;;;;;;;3.60;3.20;;;;;;;14.18;100.00;96474.72;4911634;28;105217;-71
2022/06/02 03:35:16;;;;;;;3.87;3.57;;;;;;;14.22;100.00;96477.72;4910497;28;106030;-71
2022/06/02 03:37:58;;;;;;;4.10;3.70;;;;;;;14.21;100.00;96481.44;4910108;28;101962;-71
2022/06/02 03:40:35;;;;;;;3.90;3.50;;;;;;;14.21;100.00;96484.94;4911405;28;105423;-71
2022/06/02 03:43:14;;;;;;;3.53;3.23;;;;;;;14.08;100.00;96488.16;4910505;28;105778;-71
2022/06/02 03:45:53;;;;;;;3.57;3.27;;;;;;;14.06;100.00;96490.25;4914246;28;102047;-72
2022/06/02 03:48:53;;;;;;;3.57;3.27;;;;;;;14.13;100.00;96495.34;4910771;28;105810;-71
2022/06/02 03:51:30;;;;;;;3.60;3.30;;;;;;;14.20;100.00;96495.91;4879773;28;102074;-71
2022/06/02 03:54:28;;;;;;;3.27;3.07;;;;;;;14.20;100.00;96514.63;4911427;28;105301;-71
2022/06/02 03:57:09;;;;;;;4.13;3.37;;;;;;;14.04;100.00;96529.03;4910796;28;105039;-71
2022/06/02 03:59:56;;;;;;;4.00;3.60;;;;;;;14.13;100.00;96522.91;4911339;28;101963;-72
2022/06/02 04:02:28;;;;;;;3.63;3.33;;;;;;;14.17;100.00;96501.78;4911143;28;104829;-72
2022/06/02 04:05:08;;;;;;;3.73;3.27;;;;;;;14.26;100.00;96489.47;4910220;28;105501;-71
2022/06/02 04:07:38;;;;;;;3.60;3.40;;;;;;;14.30;100.00;96499.38;4911160;28;101938;-71
2022/06/02 04:10:33;;;;;;;3.27;2.97;;;;;;;14.34;100.00;96504.97;4913873;28;105502;-71
2022/06/02 04:13:37;;;;;;;4.27;3.77;;;;;;;14.30;100.00;96499.38;4910469;28;103570;-71
2022/06/02 04:16:22;;;;;;;4.00;3.70;;;;;;;14.30;100.00;96501.22;4911016;28;105245;-71
2022/06/02 04:21:57;;;;;;;16.37;11.50;;;;;;;14.28;100.00;96524.78;4909239;28;102073;-71
2022/06/02 04:24:35;;;;;;;20.10;13.13;;;;;;;14.33;100.00;96528.25;4911020;28;102657;-71
2022/06/02 04:27:13;;;;;;;7.50;6.60;;;;;;;14.28;100.00;96516.75;4909288;28;104377;-71
2022/06/02 04:30:04;;;;;;;5.90;5.30;;;;;;;14.34;100.00;96523.72;4910762;28;102046;-71
2022/06/02 04:32:41;;;;;;;4.33;3.93;;;;;;;14.29;100.00;96531.72;4910546;28;105490;-72
2022/06/02 04:35:23;;;;;;;4.50;4.00;;;;;;;14.23;100.00;96543.50;4912907;28;102232;-71
2022/06/02 04:37:58;;;;;;;4.33;3.97;;;;;;;14.22;100.00;96544.59;4910093;28;104307;-71
2022/06/02 04:40:39;;;;;;;4.40;4.10;;;;;;;14.16;100.00;96546.41;4909908;28;105231;-71
2022/06/02 04:43:17;;;;;;;4.00;3.70;;;;;;;14.20;100.00;96557.41;4910412;28;101885;-71
2022/06/02 04:45:56;;;;;;;4.40;4.10;;;;;;;14.23;100.00;96549.66;4910381;28;105918;-71
2022/06/02 04:48:33;;;;;;;4.67;4.13;;;;;;;14.27;100.00;96542.69;4909578;28;105239;-71
2022/06/02 04:51:10;;;;;;;5.13;4.63;;;;;;;14.34;100.00;96547.78;4913655;28;102011;-71
2022/06/02 04:53:48;;;;;;;4.67;4.27;;;;;;;14.35;100.00;96552.06;4913771;28;104953;-71
2022/06/02 04:56:23;;;;;;;4.30;3.90;;;;;;;14.36;100.00;96559.81;4916516;28;104249;-71
2022/06/02 04:58:57;;;;;;;4.27;3.97;;;;;;;14.41;100.00;96548.28;4913732;28;105549;-71
2022/06/02 05:01:36;;;;;;;4.53;4.07;;;;;;;14.51;100.00;96562.44;4914283;28;102864;-71
2022/06/02 05:04:16;;;;;;;4.20;3.90;;;;;;;14.54;100.00;96553.06;4912893;28;101951;-71
2022/06/02 05:06:49;;;;;;;4.17;3.77;;;;;;;14.54;100.00;96545.03;4914493;28;102650;-71
2022/06/02 05:09:24;;;;;;;4.97;3.70;;;;;;;14.47;100.00;96545.34;4912801;28;105991;-71
2022/06/02 05:12:03;;;;;;;3.47;3.27;;;;;;;14.47;100.00;96557.91;4914850;28;101764;-71
2022/06/02 05:14:40;;;;;;;4.03;3.63;;;;;;;14.42;100.00;96548.03;4913266;28;104824;-72
2022/06/02 05:17:36;;;;;;;4.13;3.60;;;;;;;14.42;100.00;96542.69;4912654;28;105347;-72
2022/06/02 05:20:33;;;;;;;4.03;3.60;;;;;;;14.43;100.00;96557.66;4916441;28;102032;-72
2022/06/02 05:23:49;;;;;;;3.87;3.47;;;;;;;14.45;100.00;96566.22;4912375;28;105637;-72
2022/06/02 05:27:06;;;;;;;3.50;3.20;;;;;;;14.50;100.00;96560.06;4855532;29;101932;-72
2022/06/02 05:30:00;;;;;;;4.60;3.70;;;;;;;14.50;100.00;96566.19;4831749;29;102346;-72
2022/06/02 05:32:45;;;;;;;3.83;3.40;;;;;;;14.58;100.00;96552.28;4836378;29;105796;-72
2022/06/02 05:35:46;;;;;;;4.27;3.87;;;;;;;14.67;100.00;96560.56;4839060;29;102128;-72
2022/06/02 05:38:33;;;;;;;4.10;3.80;;;;;;;14.73;100.00;96554.94;4838905;29;105205;-71
2022/06/02 05:41:10;;;;;;;3.60;3.40;;;;;;;14.79;100.00;96563.72;4838466;29;105579;-71
2022/06/02 05:43:46;;;;;;;5.53;3.37;;;;;;;14.89;100.00;96566.38;4838831;29;101898;-72
2022/06/02 05:46:36;;;;;;;3.47;3.17;;;;;;;14.97;100.00;96555.91;4857329;29;102588;-71
2022/06/02 05:49:14;;;;;;;3.13;2.93;;;;;;;15.22;100.00;96557.69;4838937;29;101949;-72
2022/06/02 05:51:52;;;;;;;4.63;3.20;;;;;;;15.39;100.00;96558.16;4838634;29;105704;-72
2022/06/02 05:54:33;;;;;;;3.40;3.20;;;;;;;15.57;100.00;96561.00;4838258;29;105458;-72
2022/06/02 05:57:11;;;;;;;3.67;3.40;;;;;;;15.51;100.00;96566.66;4839006;29;101979;-72
2022/06/02 05:59:52;;;;;;;3.63;3.27;;;;;;;15.53;100.00;96564.53;4856916;28;105191;-72
2022/06/02 06:02:40;;;;;;;3.30;3.00;;;;;;;15.63;100.00;96577.84;4912306;28;103197;-71
2022/06/02 06:05:24;;;;;;;4.47;3.23;;;;;;;15.47;100.00;96576.38;4913416;28;101860;-72
2022/06/02 06:08:10;;;;;;;3.30;3.00;;;;;;;15.64;100.00;96566.84;4913748;28;102948;-71
2022/06/02 06:10:47;;;;;;;3.67;3.27;;;;;;;15.66;100.00;96564.72;4915384;28;105478;-72
2022/06/02 06:13:54;;;;;;;3.73;3.30;;;;;;;15.55;100.00;96573.91;4913985;28;101770;-72
2022/06/02 06:16:29;;;;;;;3.67;3.37;;;;;;;15.58;100.00;96580.59;4911788;28;106092;-72
2022/06/02 06:19:17;;;;;;;5.90;3.53;;;;;;;15.58;100.00;96572.53;4912196;28;101873;-71
2022/06/02 06:22:04;;;;;;;3.60;3.30;;;;;;;15.72;100.00;96562.78;4912059;28;104844;-72
2022/06/02 06:25:05;;;;;;;3.73;3.43;;;;;;;15.93;100.00;96561.59;4911524;28;105444;-72
2022/06/02 06:27:37;;;;;;;3.70;3.40;;;;;;;16.56;100.00;96568.59;4902724;28;102011;-72
2022/06/02 06:30:14;;;;;;;3.80;3.50;;;;;;;17.01;100.00;96568.13;4913731;28;102590;-72
2022/06/02 06:32:59;;;;;;;3.43;3.20;;;;;;;17.04;100.00;96567.53;4912527;28;104644;-72
2022/06/02 06:35:43;;;;;;;5.23;3.47;;;;;;;17.02;100.00;96561.66;4915421;28;101854;-72
2022/06/02 06:38:21;;;;;;;3.33;3.03;;;;;;;17.07;100.00;96565.06;4911308;28;106083;-72
2022/06/02 06:41:02;;;;;;;3.17;2.97;;;;;;;17.45;100.00;96560.59;4911909;28;101877;-72
2022/06/02 06:43:53;;;;;;;4.43;2.80;;;;;;;17.51;100.00;96554.06;4911765;28;105416;-72
2022/06/02 06:46:25;;;;;;;3.30;3.00;;;;;;;17.87;100.00;96552.50;4912657;28;102827;-72
2022/06/02 06:48:58;;;;;;;3.30;2.80;;;;;;;17.69;100.00;96543.31;4911444;28;102075;-72
2022/06/02 06:51:42;;;;;;;3.47;3.00;;;;;;;18.01;100.00;96545.25;4911711;28;105370;-72
2022/06/02 06:54:21;;;;;;;2.40;2.20;;;;;;;17.85;100.00;96549.25;4911375;28;104919;-72
2022/06/02 06:56:53;;;;;;;2.03;1.90;;;;;;;17.89;100.00;96550.28;4915148;28;101991;-72
2022/06/02 06:59:34;;;;;;;2.00;1.90;;;;;;;18.29;100.00;96553.13;4911185;28;104424;-72
2022/06/02 07:02:13;;;;;;;2.70;2.47;;;;;;;18.38;100.00;96561.38;4911601;28;101855;-72
2022/06/02 07:05:01;;;;;;;2.50;2.30;;;;;;;18.19;100.00;96565.94;4910922;28;105511;-72
2022/06/02 07:07:40;;;;;;;2.50;2.30;;;;;;;18.50;100.00;96564.38;4912562;28;102980;-72
2022/06/02 07:10:14;;;;;;;2.57;2.37;;;;;;;18.77;100.00;96567.94;4911575;28;101856;-72
2022/06/02 07:12:53;;;;;;;2.60;2.40;;;;;;;18.77;100.00;96564.44;4911806;28;105132;-72
2022/06/02 07:15:46;;;;;;;2.50;2.30;;;;;;;19.00;100.00;96563.47;4910672;28;105395;-72
2022/06/02 07:18:44;;;;;;;3.83;2.30;;;;;;;18.65;100.00;96558.75;4911340;28;101863;-72
2022/06/02 07:21:30;;;;;;;3.17;2.30;;;;;;;18.90;100.00;96558.25;4914153;28;105142;-72
2022/06/02 07:24:19;;;;;;;2.50;2.17;;;;;;;19.39;100.00;96563.78;4911306;28;101829;-72
2022/06/02 07:27:01;;;;;;;1.90;1.80;;;;;;;19.49;100.00;96568.97;4911242;28;105163;-72
2022/06/02 07:29:51;;;;;;;3.33;2.07;;;;;;;19.08;100.00;96560.09;4910909;28;105670;-72
2022/06/02 07:32:47;;;;;;;2.47;2.20;;;;;;;18.68;100.00;96556.25;4911225;28;101850;-70
2022/06/02 07:35:46;;;;;;;2.93;2.00;;;;;;;19.11;100.00;96557.59;4877471;28;105612;-72
2022/06/02 07:38:30;;;;;;;4.27;2.20;;;;;;;18.97;100.00;96561.38;4910149;28;103812;-69
2022/06/02 07:41:16;;;;;;;2.33;2.03;;;;;;;19.56;100.00;96564.75;4911637;28;101863;-68
2022/06/02 07:44:08;;;;;;;2.10;1.90;;;;;;;19.58;100.00;96569.84;4906614;28;105440;-73
2022/06/02 07:46:56;;;;;;;2.10;1.90;;;;;;;19.25;100.00;96560.31;4897453;28;105726;-67
2022/06/02 07:49:37;;;;;;;2.43;1.90;;;;;;;18.99;100.00;96573.47;4912268;28;102826;-66
2022/06/02 07:52:12;;;;;;;2.20;2.00;;;;;;;19.00;100.00;96566.16;4909946;28;105555;-68
2022/06/02 07:54:49;;;;;;;2.00;1.90;;;;;;;18.81;100.00;96552.75;4910707;28;102227;-66
2022/06/02 07:57:30;;;;;;;1.93;1.70;;;;;;;19.29;100.00;96558.63;4911928;28;102551;-65
2022/06/02 08:00:14;;;;;;;1.63;1.37;;;;;;;19.99;100.00;96559.78;4909743;28;105794;-65
2022/06/02 08:03:05;;;;;;;1.87;1.57;;;;;;;20.69;100.00;96563.44;4910301;28;102353;-65
2022/06/02 08:05:39;;;;;;;1.40;1.30;;;;;;;20.50;100.00;96573.66;4910149;28;105136;-67
2022/06/02 08:08:21;;;;;;;1.27;1.27;;;;;;;20.86;100.00;96566.22;4911464;28;103158;-64
2022/06/02 08:11:02;;;;;;;2.20;1.70;;;;;;;20.42;100.00;96569.81;4914073;28;101903;-64
2022/06/02 08:13:39;;;;;;;7.40;1.87;;;;;;;20.54;100.00;96574.66;4909319;28;105608;-64
2022/06/02 08:16:12;;;;;;;1.93;1.70;;;;;;;20.70;100.00;96567.75;4910283;28;101921;-64
2022/06/02 08:18:52;;;;;;;3.43;1.40;;;;;;;20.87;100.00;96565.16;4910688;28;104855;-64
2022/06/02 08:21:26;;;;;;;1.67;1.30;;;;;;;20.93;100.00;96558.53;4909708;28;104696;-64
2022/06/02 08:24:28;;;;;;;1.87;1.77;;;;;;;21.53;100.00;96571.13;4909667;28;101953;-64
2022/06/02 08:27:21;;;;;;;1.50;1.40;;;;;;;21.49;100.00;96572.88;4910325;28;105259;-64
2022/06/02 08:30:04;;;;;;;1.77;1.37;;;;;;;21.65;100.00;96571.34;4912970;28;105318;-64
2022/06/02 08:32:53;;;;;;;2.03;1.60;;;;;;;22.06;100.00;96577.13;4913747;28;101805;-64
2022/06/02 08:35:26;;;;;;;1.50;1.40;;;;;;;22.66;100.00;96583.31;4916382;28;104941;-64
2022/06/02 08:38:11;;;;;;;3.77;1.80;;;;;;;20.95;100.00;96580.63;4913293;28;102257;-64
2022/06/02 08:41:02;;;;;;;1.90;1.73;;;;;;;20.78;100.00;96580.50;4913581;28;104788;-63
2022/06/02 08:44:01;;;;;;;1.70;1.60;;;;;;;21.13;100.00;96579.59;4912500;28;104042;-64
2022/06/02 08:47:13;;;;;;;1.60;1.33;;;;;;;21.05;100.00;96580.34;4910095;28;103051;-64
2022/06/02 08:50:25;;;;;;;1.40;1.30;;;;;;;21.02;100.00;96568.25;4913935;28;104831;-64
2022/06/02 08:53:27;;;;;;;1.70;1.60;;;;;;;21.82;100.00;96581.41;4858123;28;105136;-64
2022/06/02 08:56:38;;;;;;;2.20;1.50;;;;;;;21.90;100.00;96591.47;4893572;28;102852;-64
2022/06/02 08:59:39;;;;;;;1.63;1.50;;;;;;;21.65;100.00;96592.19;4913234;28;105324;-64
2022/06/02 09:02:34;;;;;;;1.63;1.53;;;;;;;22.10;100.00;96593.53;4903041;28;103186;-63
2022/06/02 09:05:35;;;;;;;2.07;1.97;;;;;;;21.63;100.00;96586.28;4913221;28;105513;-64
2022/06/02 09:08:23;;;;;;;1.67;1.57;;;;;;;22.35;100.00;96593.53;4914466;28;102997;-64
2022/06/02 09:11:07;;;;;;;1.70;1.60;;;;;;;20.89;100.00;96595.38;4914873;28;101862;-64
2022/06/02 09:14:01;;;;;;;1.83;1.70;;;;;;;21.83;100.00;96591.13;4915005;28;102976;-64
2022/06/02 09:16:42;;;;;;;1.80;1.70;;;;;;;23.10;100.00;96590.25;4914235;28;102907;-64
2022/06/02 09:19:29;;;;;;;1.97;1.63;;;;;;;23.44;100.00;96598.28;4913481;28;101899;-64
2022/06/02 09:22:17;;;;;;;1.93;1.53;;;;;;;23.13;100.00;96586.88;4913125;28;105694;-64
2022/06/02 09:24:51;;;;;;;2.63;1.20;;;;;;;23.15;100.00;96595.50;4917287;28;102551;-64
2022/06/02 09:27:49;;;;;;;2.53;1.57;;;;;;;22.32;100.00;96599.59;4914618;28;102391;-64
2022/06/02 09:30:19;;;;;;;2.40;1.50;;;;;;;22.10;100.00;96593.53;4896623;28;105423;-64
2022/06/02 09:35:57;;;;;;;1.43;1.33;;;;;;;22.45;100.00;96593.25;4910720;28;105149;-64
2022/06/02 09:38:42;;;;;;;1.53;1.43;;;;;;;22.99;100.00;96591.72;4912307;28;105376;-63
2022/06/02 09:41:36;;;;;;;2.33;1.53;;;;;;;23.47;100.00;96594.88;4913297;28;102186;-64
2022/06/02 09:44:16;;;;;;;2.23;1.67;;;;;;;23.05;100.00;96587.72;4913258;28;105664;-64
2022/06/02 09:47:08;;;;;;;1.30;1.20;;;;;;;23.69;100.00;96587.25;4913750;28;101792;-64
2022/06/02 09:50:18;;;;;;;1.83;1.40;;;;;;;23.93;100.00;96587.44;4916583;28;101945;-64
2022/06/02 09:53:07;;;;;;;2.03;1.30;;;;;;;23.68;100.00;96593.03;4875951;28;105552;-64
2022/06/02 09:55:41;;;;;;;1.73;1.50;;;;;;;23.06;100.00;96592.78;4912814;28;102087;-64
2022/06/02 09:58:35;;;;;;;1.53;1.33;;;;;;;23.73;100.00;96595.53;4914097;28;101719;-64
2022/06/02 10:01:36;;;;;;;1.17;1.10;;;;;;;24.04;100.00;96590.59;4912321;28;105540;-64
2022/06/02 10:04:29;;;;;;;1.80;1.30;;;;;;;24.51;100.00;96579.16;4892081;28;101962;-64
2022/06/02 10:07:12;;;;;;;1.67;1.57;;;;;;;24.21;100.00;96585.03;4912667;28;105584;-64
2022/06/02 10:09:58;;;;;;;1.60;1.50;;;;;;;24.21;100.00;96585.81;4912038;28;105874;-64
2022/06/02 10:12:58;;;;;;;1.30;1.20;;;;;;;23.85;100.00;96582.03;4913935;28;101695;-64
2022/06/02 10:15:54;;;;;;;1.70;1.20;;;;;;;23.67;100.00;96586.00;4914982;28;105203;-64
2022/06/02 10:18:50;;;;;;;2.20;1.20;;;;;;;24.56;100.00;96587.09;4912367;28;101839;-64
2022/06/02 10:21:26;;;;;;;1.40;1.10;;;;;;;25.07;100.00;96589.31;4905723;28;105475;-64
2022/06/02 10:24:30;;;;;;;1.53;1.00;;;;;;;25.42;100.00;96587.00;4913236;28;102639;-64
2022/06/02 10:27:28;;;;;;;1.20;1.10;;;;;;;25.81;100.00;96583.59;4880889;28;102008;-63
2022/06/02 10:30:31;;;;;;;2.40;1.20;;;;;;;26.08;92.83;96580.97;4912340;28;105769;-64
2022/06/02 10:33:28;;;;;;;1.20;1.07;;;;;;;25.53;94.85;96588.16;4913023;28;102655;-64
2022/06/02 10:36:24;;;;;;;1.57;1.27;;;;;;;25.56;95.78;96582.81;4912303;28;101825;-64
2022/06/02 10:39:21;;;;;;;1.20;1.10;;;;;;;25.19;99.53;96578.47;4911860;28;105266;-64
2022/06/02 10:42:15;;;;;;;1.73;1.13;;;;;;;25.09;91.24;96583.53;4916432;28;102878;-64
2022/06/02 10:45:18;;;;;;;2.00;1.40;;;;;;;25.28;94.38;96581.91;4913412;28;102441;-64
2022/06/02 10:48:12;;;;;;;0.90;0.90;;;;;;;25.55;93.32;96581.22;4910839;28;105847;-64
2022/06/02 10:51:00;;;;;;;1.30;1.20;;;;;;;25.84;96.89;96577.47;4911998;28;101944;-63
2022/06/02 10:54:04;;;;;;;2.17;1.17;;;;;;;26.14;88.43;96571.41;4911966;28;105392;-63
2022/06/02 10:57:03;;;;;;;1.30;1.20;;;;;;;26.07;86.24;96573.94;4912669;28;103116;-64
2022/06/02 11:00:09;;;;;;;1.20;1.10;;;;;;;25.53;78.83;96575.34;4913570;28;101918;-64
2022/06/02 11:03:28;;;;;;;1.17;1.03;;;;;;;25.59;91.20;96570.44;4911855;28;105726;-64
2022/06/02 11:06:24;;;;;;;1.33;1.00;;;;;;;25.30;77.61;96576.94;4910989;28;104947;-64
2022/06/02 11:09:34;;;;;;;1.90;1.10;;;;;;;25.20;95.05;96565.63;4915048;28;102023;-64
2022/06/02 11:12:35;;;;;;;1.17;1.07;;;;;;;23.47;100.00;96560.41;4912600;28;103298;-64
2022/06/02 11:15:35;;;;;;;2.07;1.30;;;;;;;23.16;100.00;96559.09;4911640;28;101778;-64
2022/06/02 11:18:32;;;;;;;1.80;1.10;;;;;;;23.03;100.00;96554.66;4911367;28;105429;-64
2022/06/02 11:21:34;;;;;;;2.07;1.10;;;;;;;24.09;100.00;96552.34;4912128;28;102895;-64
2022/06/02 11:24:24;;;;;;;1.37;1.10;;;;;;;24.79;100.00;96546.75;4912602;28;102316;-64
2022/06/02 11:27:17;;;;;;;1.10;1.00;;;;;;;25.42;100.00;96538.00;4912879;28;102263;-64
2022/06/02 11:30:15;;;;;;;1.13;1.03;;;;;;;25.83;96.76;96543.19;4912289;28;102866;-64
2022/06/02 11:33:13;;;;;;;1.57;1.10;;;;;;;25.16;88.28;96537.50;4912854;28;101844;-64
2022/06/02 11:36:11;;;;;;;1.27;1.17;;;;;;;24.49;96.68;96531.69;4915371;28;102269;-64
2022/06/02 11:39:02;;;;;;;1.43;1.00;;;;;;;23.67;100.00;96528.97;4912420;28;102005;-64
2022/06/02 11:41:38;;;;;;;1.77;1.10;;;;;;;25.50;100.00;96518.03;4911612;28;102750;-64
2022/06/02 11:44:12;;;;;;;2.53;1.17;;;;;;;25.29;93.45;96523.59;4911564;28;102734;-64
2022/06/02 11:47:22;;;;;;;2.47;1.10;;;;;;;24.20;91.06;96526.38;4912547;28;101686;-64
2022/06/02 11:50:18;;;;;;;1.33;1.07;;;;;;;25.16;90.13;96524.69;4911286;28;104135;-64
2022/06/02 11:53:19;;;;;;;1.87;1.07;;;;;;;26.19;92.19;96526.75;4859305;28;103756;-64
2022/06/02 11:55:55;;;;;;;1.00;1.00;;;;;;;25.79;89.98;96524.00;4912512;28;101697;-64
2022/06/02 11:58:51;;;;;;;0.90;0.90;;;;;;;26.12;79.00;96524.63;4914645;28;102643;-64
2022/06/02 12:01:40;;;;;;;1.00;1.00;;;;;;;26.72;68.33;96526.31;4910926;28;101827;-64
2022/06/02 12:04:31;;;;;;;0.90;0.90;;;;;;;27.00;70.90;96521.59;4912341;28;103099;-64
2022/06/02 12:07:12;;;;;;;0.80;0.80;;;;;;;27.21;68.07;96513.97;4911551;28;102985;-64
2022/06/02 12:10:12;;;;;;;1.07;0.90;;;;;;;27.44;62.76;96512.16;4911088;28;102265;-64
2022/06/02 12:13:09;;;;;;;1.20;0.77;;;;;;;27.57;64.56;96508.19;4912207;28;101655;-64
2022/06/02 12:16:06;;;;;;;0.93;0.87;;;;;;;27.98;56.99;96507.56;4910199;28;105579;-64
2022/06/02 12:18:52;;;;;;;0.80;0.80;;;;;;;27.82;57.70;96504.91;4910844;28;101905;-64
2022/06/02 12:21:37;;;;;;;0.80;0.80;;;;;;;28.40;57.27;96512.00;4910598;28;104167;-64
2022/06/02 12:24:25;;;;;;;1.13;1.07;;;;;;;28.72;59.22;96504.41;4914980;28;102998;-64
2022/06/02 12:27:07;;;;;;;0.93;0.83;;;;;;;27.86;50.71;96503.03;4909968;28;105896;-64
2022/06/02 12:29:56;;;;;;;1.37;0.90;;;;;;;29.03;52.56;96506.94;4911591;28;102861;-64
2022/06/02 12:32:39;;;;;;;1.05;0.98;;;;;;;29.16;48.98;96502.88;4910733;28;101982;-64
2022/06/02 12:35:40;;;;;;;0.80;0.80;;;;;;;29.32;44.92;96507.03;4910338;28;104966;-64
2022/06/02 12:38:30;;;;;;;1.10;1.00;;;;;;;29.50;47.62;96507.31;4888151;28;103482;-64
2022/06/02 12:41:17;;;;;;;0.80;0.80;;;;;;;28.80;42.76;96512.38;4910523;28;101883;-63
2022/06/02 12:44:09;;;;;;;0.90;0.90;;;;;;;27.77;44.91;96502.41;4910616;28;105851;-64
2022/06/02 12:47:02;;;;;;;1.60;0.85;;;;;;;27.33;50.29;96497.47;4909913;28;102847;-63
2022/06/02 12:50:20;;;;;;;0.90;0.90;;;;;;;27.94;56.34;96507.50;4914672;28;101857;-64
2022/06/02 12:53:22;;;;;;;6.28;1.27;;;;;;;28.98;55.18;96499.81;4877747;28;105483;-64